sensor_id;sensor_type;location;lat;lon;timestamp;temperature;humidity
20125;DHT22;10223;50.862;4.360;2023-09-19T00:00:21;16.50;99.90
20125;DHT22;10223;50.862;4.360;2023-09-19T00:02:54;16.50;99.90
20125;DHT22;10223;50.862;4.360;2023-09-19T00:05:24;16.40;99.90
20125;DHT22;10223;50.862;4.360;2023-09-19T00:07:54;16.40;99.90
20125;DHT22;10223;50.862;4.360;2023-09-19T00:10:21;16.50;99.90
20125;DHT22;10223;50.862;4.360;2023-09-19T00:12:50;16.30;99.90
20125;DHT22;10223;50.862;4.360;2023-09-19T00:15:18;16.40;99.90
20125;DHT22;10223;50.862;4.360;2023-09-19T00:17:45;16.30;99.90
20125;DHT22;10223;50.862;4.360;2023-09-19T00:20:13;16.30;99.90
20125;DHT22;10223;50.862;4.360;2023-09-19T00:22:42;16.30;99.90
20125;DHT22;10223;50.862;4.360;2023-09-19T00:25:10;16.40;99.90
20125;DHT22;10223;50.862;4.360;2023-09-19T00:27:37;16.30;99.90
20125;DHT22;10223;50.862;4.360;2023-09-19T00:30:08;16.20;99.90
20125;DHT22;10223;50.862;4.360;2023-09-19T00:32:41;16.10;99.90
20125;DHT22;10223;50.862;4.360;2023-09-19T00:35:08;16.00;99.90
20125;DHT22;10223;50.862;4.360;2023-09-19T00:37:36;16.00;99.90
20125;DHT22;10223;50.862;4.360;2023-09-19T00:40:03;16.00;99.90
20125;DHT22;10223;50.862;4.360;2023-09-19T00:42:31;16.10;99.90
20125;DHT22;10223;50.862;4.360;2023-09-19T00:44:59;16.00;99.90
20125;DHT22;10223;50.862;4.360;2023-09-19T00:47:29;16.00;99.90
20125;DHT22;10223;50.862;4.360;2023-09-19T00:49:57;16.00;99.90
20125;DHT22;10223;50.862;4.360;2023-09-19T00:52:25;16.00;99.90
20125;DHT22;10223;50.862;4.360;2023-09-19T00:54:52;16.00;99.90
20125;DHT22;10223;50.862;4.360;2023-09-19T00:57:19;16.00;99.90
20125;DHT22;10223;50.862;4.360;2023-09-19T00:59:49;15.90;99.90
20125;DHT22;10223;50.862;4.360;2023-09-19T01:02:17;15.90;99.90
20125;DHT22;10223;50.862;4.360;2023-09-19T01:04:44;16.00;99.90
20125;DHT22;10223;50.862;4.360;2023-09-19T01:07:13;15.90;99.90
20125;DHT22;10223;50.862;4.360;2023-09-19T01:09:41;15.90;99.90
20125;DHT22;10223;50.862;4.360;2023-09-19T01:12:09;15.90;99.90
20125;DHT22;10223;50.862;4.360;2023-09-19T01:14:42;16.00;99.90
20125;DHT22;10223;50.862;4.360;2023-09-19T01:17:19;15.90;99.90
20125;DHT22;10223;50.862;4.360;2023-09-19T01:20:07;15.90;99.90
20125;DHT22;10223;50.862;4.360;2023-09-19T01:22:48;15.90;99.90
20125;DHT22;10223;50.862;4.360;2023-09-19T01:25:41;15.80;99.90
20125;DHT22;10223;50.862;4.360;2023-09-19T01:28:23;15.80;99.90
20125;DHT22;10223;50.862;4.360;2023-09-19T01:30:57;15.90;99.90
20125;DHT22;10223;50.862;4.360;2023-09-19T01:33:25;15.90;99.90
20125;DHT22;10223;50.862;4.360;2023-09-19T01:35:52;15.80;99.90
20125;DHT22;10223;50.862;4.360;2023-09-19T01:38:23;15.80;99.90
20125;DHT22;10223;50.862;4.360;2023-09-19T01:40:57;15.80;99.90
20125;DHT22;10223;50.862;4.360;2023-09-19T01:43:30;15.70;99.90
20125;DHT22;10223;50.862;4.360;2023-09-19T01:46:04;15.70;99.90
20125;DHT22;10223;50.862;4.360;2023-09-19T01:48:38;15.80;99.90
20125;DHT22;10223;50.862;4.360;2023-09-19T01:51:06;15.70;99.90
20125;DHT22;10223;50.862;4.360;2023-09-19T01:53:36;15.70;99.90
20125;DHT22;10223;50.862;4.360;2023-09-19T01:56:05;15.70;99.90
20125;DHT22;10223;50.862;4.360;2023-09-19T01:58:41;15.70;99.90
20125;DHT22;10223;50.862;4.360;2023-09-19T02:01:12;15.70;99.90
20125;DHT22;10223;50.862;4.360;2023-09-19T02:03:42;15.70;99.90
20125;DHT22;10223;50.862;4.360;2023-09-19T02:06:13;15.60;99.90
20125;DHT22;10223;50.862;4.360;2023-09-19T02:08:41;15.70;99.90
20125;DHT22;10223;50.862;4.360;2023-09-19T02:11:08;15.60;99.90
20125;DHT22;10223;50.862;4.360;2023-09-19T02:13:35;15.50;99.90
20125;DHT22;10223;50.862;4.360;2023-09-19T02:16:02;15.50;99.90
20125;DHT22;10223;50.862;4.360;2023-09-19T02:18:31;15.50;99.90
20125;DHT22;10223;50.862;4.360;2023-09-19T02:21:00;15.50;99.90
20125;DHT22;10223;50.862;4.360;2023-09-19T02:23:27;15.60;99.90
20125;DHT22;10223;50.862;4.360;2023-09-19T02:25:56;15.50;99.90
20125;DHT22;10223;50.862;4.360;2023-09-19T02:28:25;15.50;99.90
20125;DHT22;10223;50.862;4.360;2023-09-19T02:30:55;15.60;99.90
20125;DHT22;10223;50.862;4.360;2023-09-19T02:33:22;15.50;99.90
20125;DHT22;10223;50.862;4.360;2023-09-19T02:35:54;15.40;99.90
20125;DHT22;10223;50.862;4.360;2023-09-19T02:38:23;15.50;99.90
20125;DHT22;10223;50.862;4.360;2023-09-19T02:40:50;15.50;99.90
20125;DHT22;10223;50.862;4.360;2023-09-19T02:43:17;15.50;99.90
20125;DHT22;10223;50.862;4.360;2023-09-19T02:45:45;15.60;99.90
20125;DHT22;10223;50.862;4.360;2023-09-19T02:48:13;15.60;99.90
20125;DHT22;10223;50.862;4.360;2023-09-19T02:50:41;15.60;99.90
20125;DHT22;10223;50.862;4.360;2023-09-19T02:53:09;15.30;99.90
20125;DHT22;10223;50.862;4.360;2023-09-19T02:55:38;15.40;99.90
20125;DHT22;10223;50.862;4.360;2023-09-19T02:58:06;15.40;99.90
20125;DHT22;10223;50.862;4.360;2023-09-19T03:00:34;15.40;99.90
20125;DHT22;10223;50.862;4.360;2023-09-19T03:03:01;15.40;99.90
20125;DHT22;10223;50.862;4.360;2023-09-19T03:05:28;15.40;99.90
20125;DHT22;10223;50.862;4.360;2023-09-19T03:07:56;15.40;99.90
20125;DHT22;10223;50.862;4.360;2023-09-19T03:10:27;15.40;99.90
20125;DHT22;10223;50.862;4.360;2023-09-19T03:12:56;15.40;99.90
20125;DHT22;10223;50.862;4.360;2023-09-19T03:15:23;15.40;99.90
20125;DHT22;10223;50.862;4.360;2023-09-19T03:17:50;15.50;99.90
20125;DHT22;10223;50.862;4.360;2023-09-19T03:20:17;15.50;99.90
20125;DHT22;10223;50.862;4.360;2023-09-19T03:22:44;15.50;99.90
20125;DHT22;10223;50.862;4.360;2023-09-19T03:25:12;15.50;99.90
20125;DHT22;10223;50.862;4.360;2023-09-19T03:27:40;15.50;99.90
20125;DHT22;10223;50.862;4.360;2023-09-19T03:30:08;15.30;99.90
20125;DHT22;10223;50.862;4.360;2023-09-19T03:32:35;15.10;99.90
20125;DHT22;10223;50.862;4.360;2023-09-19T03:35:03;15.00;99.90
20125;DHT22;10223;50.862;4.360;2023-09-19T03:37:31;15.00;99.90
20125;DHT22;10223;50.862;4.360;2023-09-19T03:39:58;15.10;99.90
20125;DHT22;10223;50.862;4.360;2023-09-19T03:42:30;15.10;99.90
20125;DHT22;10223;50.862;4.360;2023-09-19T03:44:58;15.00;99.90
20125;DHT22;10223;50.862;4.360;2023-09-19T03:47:26;15.10;99.90
20125;DHT22;10223;50.862;4.360;2023-09-19T03:49:53;14.90;99.90
20125;DHT22;10223;50.862;4.360;2023-09-19T03:52:20;15.00;99.90
20125;DHT22;10223;50.862;4.360;2023-09-19T03:54:46;15.00;99.90
20125;DHT22;10223;50.862;4.360;2023-09-19T03:57:14;14.90;99.90
20125;DHT22;10223;50.862;4.360;2023-09-19T03:59:46;14.90;99.90
20125;DHT22;10223;50.862;4.360;2023-09-19T04:02:14;14.80;99.90
20125;DHT22;10223;50.862;4.360;2023-09-19T04:04:47;14.90;99.90
20125;DHT22;10223;50.862;4.360;2023-09-19T04:07:14;14.90;99.90
20125;DHT22;10223;50.862;4.360;2023-09-19T04:09:41;14.90;99.90
20125;DHT22;10223;50.862;4.360;2023-09-19T04:12:08;14.90;99.90
20125;DHT22;10223;50.862;4.360;2023-09-19T04:14:35;14.90;99.90
20125;DHT22;10223;50.862;4.360;2023-09-19T04:17:01;15.00;99.90
20125;DHT22;10223;50.862;4.360;2023-09-19T04:19:30;14.90;99.90
20125;DHT22;10223;50.862;4.360;2023-09-19T04:21:56;14.90;99.90
20125;DHT22;10223;50.862;4.360;2023-09-19T04:24:23;14.90;99.90
20125;DHT22;10223;50.862;4.360;2023-09-19T04:26:50;14.90;99.90
20125;DHT22;10223;50.862;4.360;2023-09-19T04:29:18;14.90;99.90
20125;DHT22;10223;50.862;4.360;2023-09-19T04:31:45;14.80;99.90
20125;DHT22;10223;50.862;4.360;2023-09-19T04:34:12;14.80;99.90
20125;DHT22;10223;50.862;4.360;2023-09-19T04:36:43;14.80;99.90
20125;DHT22;10223;50.862;4.360;2023-09-19T04:39:09;14.80;99.90
20125;DHT22;10223;50.862;4.360;2023-09-19T04:41:38;14.80;99.90
20125;DHT22;10223;50.862;4.360;2023-09-19T04:44:07;14.70;99.90
20125;DHT22;10223;50.862;4.360;2023-09-19T04:46:34;14.80;99.90
20125;DHT22;10223;50.862;4.360;2023-09-19T04:49:03;14.80;99.90
20125;DHT22;10223;50.862;4.360;2023-09-19T04:51:30;14.80;99.90
20125;DHT22;10223;50.862;4.360;2023-09-19T04:54:01;14.80;99.90
20125;DHT22;10223;50.862;4.360;2023-09-19T04:56:28;14.80;99.90
20125;DHT22;10223;50.862;4.360;2023-09-19T04:58:55;14.80;99.90
20125;DHT22;10223;50.862;4.360;2023-09-19T05:01:23;14.80;99.90
20125;DHT22;10223;50.862;4.360;2023-09-19T05:03:50;14.70;99.90
20125;DHT22;10223;50.862;4.360;2023-09-19T05:06:18;14.70;99.90
20125;DHT22;10223;50.862;4.360;2023-09-19T05:08:46;14.80;99.90
20125;DHT22;10223;50.862;4.360;2023-09-19T05:11:17;14.80;99.90
20125;DHT22;10223;50.862;4.360;2023-09-19T05:13:44;14.70;99.90
20125;DHT22;10223;50.862;4.360;2023-09-19T05:16:11;14.70;99.90
20125;DHT22;10223;50.862;4.360;2023-09-19T05:18:38;14.70;99.90
20125;DHT22;10223;50.862;4.360;2023-09-19T05:21:05;14.70;99.90
20125;DHT22;10223;50.862;4.360;2023-09-19T05:23:31;14.70;99.90
20125;DHT22;10223;50.862;4.360;2023-09-19T05:25:58;14.70;99.90
20125;DHT22;10223;50.862;4.360;2023-09-19T05:28:29;14.60;99.90
20125;DHT22;10223;50.862;4.360;2023-09-19T05:30:56;14.70;99.90
20125;DHT22;10223;50.862;4.360;2023-09-19T05:33:23;14.70;99.90
20125;DHT22;10223;50.862;4.360;2023-09-19T05:35:50;14.60;99.90
20125;DHT22;10223;50.862;4.360;2023-09-19T05:38:16;14.60;99.90
20125;DHT22;10223;50.862;4.360;2023-09-19T05:40:45;14.70;99.90
20125;DHT22;10223;50.862;4.360;2023-09-19T05:43:12;14.70;99.90
20125;DHT22;10223;50.862;4.360;2023-09-19T05:45:43;14.70;99.90
20125;DHT22;10223;50.862;4.360;2023-09-19T05:48:12;14.70;99.90
20125;DHT22;10223;50.862;4.360;2023-09-19T05:50:42;14.70;99.90
20125;DHT22;10223;50.862;4.360;2023-09-19T05:53:08;14.70;99.90
20125;DHT22;10223;50.862;4.360;2023-09-19T05:55:37;14.90;99.90
20125;DHT22;10223;50.862;4.360;2023-09-19T05:58:04;14.80;99.90
20125;DHT22;10223;50.862;4.360;2023-09-19T06:00:31;14.80;99.90
20125;DHT22;10223;50.862;4.360;2023-09-19T06:02:59;14.90;99.90
20125;DHT22;10223;50.862;4.360;2023-09-19T06:05:27;14.80;99.90
20125;DHT22;10223;50.862;4.360;2023-09-19T06:08:01;14.80;99.90
20125;DHT22;10223;50.862;4.360;2023-09-19T06:10:36;14.80;99.90
20125;DHT22;10223;50.862;4.360;2023-09-19T06:13:03;14.90;99.90
20125;DHT22;10223;50.862;4.360;2023-09-19T06:15:31;14.80;99.90
20125;DHT22;10223;50.862;4.360;2023-09-19T06:18:03;14.80;99.90
20125;DHT22;10223;50.862;4.360;2023-09-19T06:20:30;14.90;99.90
20125;DHT22;10223;50.862;4.360;2023-09-19T06:22:58;14.90;99.90
20125;DHT22;10223;50.862;4.360;2023-09-19T06:25:27;14.90;99.90
20125;DHT22;10223;50.862;4.360;2023-09-19T06:27:54;15.00;99.90
20125;DHT22;10223;50.862;4.360;2023-09-19T06:30:22;15.10;99.90
20125;DHT22;10223;50.862;4.360;2023-09-19T06:32:49;15.00;99.90
20125;DHT22;10223;50.862;4.360;2023-09-19T06:35:23;15.10;99.90
20125;DHT22;10223;50.862;4.360;2023-09-19T06:37:51;15.10;99.90
20125;DHT22;10223;50.862;4.360;2023-09-19T06:40:19;15.00;99.90
20125;DHT22;10223;50.862;4.360;2023-09-19T06:42:47;15.10;99.90
20125;DHT22;10223;50.862;4.360;2023-09-19T06:45:16;15.10;99.90
20125;DHT22;10223;50.862;4.360;2023-09-19T06:47:46;15.00;99.90
20125;DHT22;10223;50.862;4.360;2023-09-19T06:50:15;15.20;99.90
20125;DHT22;10223;50.862;4.360;2023-09-19T06:52:45;15.00;99.90
20125;DHT22;10223;50.862;4.360;2023-09-19T06:55:15;15.20;99.90
20125;DHT22;10223;50.862;4.360;2023-09-19T06:57:43;15.20;99.90
20125;DHT22;10223;50.862;4.360;2023-09-19T07:00:10;15.00;99.90
20125;DHT22;10223;50.862;4.360;2023-09-19T07:02:43;15.10;99.90
20125;DHT22;10223;50.862;4.360;2023-09-19T07:05:10;15.20;99.90
20125;DHT22;10223;50.862;4.360;2023-09-19T07:07:38;15.30;99.90
20125;DHT22;10223;50.862;4.360;2023-09-19T07:10:07;15.40;99.90
20125;DHT22;10223;50.862;4.360;2023-09-19T07:12:36;15.50;99.90
20125;DHT22;10223;50.862;4.360;2023-09-19T07:15:03;15.40;99.90
20125;DHT22;10223;50.862;4.360;2023-09-19T07:17:31;15.50;99.90
20125;DHT22;10223;50.862;4.360;2023-09-19T07:19:58;15.70;99.90
20125;DHT22;10223;50.862;4.360;2023-09-19T07:22:26;15.90;99.90
20125;DHT22;10223;50.862;4.360;2023-09-19T07:24:53;15.90;99.90
20125;DHT22;10223;50.862;4.360;2023-09-19T07:27:21;15.90;99.90
20125;DHT22;10223;50.862;4.360;2023-09-19T07:29:48;16.20;99.90
20125;DHT22;10223;50.862;4.360;2023-09-19T07:32:15;16.30;99.90
20125;DHT22;10223;50.862;4.360;2023-09-19T07:34:42;16.30;99.90
20125;DHT22;10223;50.862;4.360;2023-09-19T07:37:10;16.30;99.90
20125;DHT22;10223;50.862;4.360;2023-09-19T07:39:38;16.40;99.90
20125;DHT22;10223;50.862;4.360;2023-09-19T07:42:06;16.30;99.90
20125;DHT22;10223;50.862;4.360;2023-09-19T07:44:36;16.40;99.90
20125;DHT22;10223;50.862;4.360;2023-09-19T07:47:03;16.30;99.90
20125;DHT22;10223;50.862;4.360;2023-09-19T07:49:30;16.40;99.90
20125;DHT22;10223;50.862;4.360;2023-09-19T07:51:57;16.60;99.90
20125;DHT22;10223;50.862;4.360;2023-09-19T07:54:24;16.50;99.90
20125;DHT22;10223;50.862;4.360;2023-09-19T07:56:52;16.70;99.90
20125;DHT22;10223;50.862;4.360;2023-09-19T07:59:21;16.70;99.90
20125;DHT22;10223;50.862;4.360;2023-09-19T08:01:49;16.80;99.90
20125;DHT22;10223;50.862;4.360;2023-09-19T08:04:16;16.90;99.90
20125;DHT22;10223;50.862;4.360;2023-09-19T08:06:44;16.90;99.90
20125;DHT22;10223;50.862;4.360;2023-09-19T08:09:11;17.10;99.90
20125;DHT22;10223;50.862;4.360;2023-09-19T08:11:47;17.00;99.90
20125;DHT22;10223;50.862;4.360;2023-09-19T08:14:16;17.00;99.90
20125;DHT22;10223;50.862;4.360;2023-09-19T08:16:43;17.10;99.90
20125;DHT22;10223;50.862;4.360;2023-09-19T08:19:11;17.10;99.90
20125;DHT22;10223;50.862;4.360;2023-09-19T08:21:38;17.00;99.90
20125;DHT22;10223;50.862;4.360;2023-09-19T08:24:05;17.20;99.90
20125;DHT22;10223;50.862;4.360;2023-09-19T08:26:32;17.10;99.90
20125;DHT22;10223;50.862;4.360;2023-09-19T08:28:59;17.20;99.90
20125;DHT22;10223;50.862;4.360;2023-09-19T08:31:30;17.40;99.90
20125;DHT22;10223;50.862;4.360;2023-09-19T08:33:57;17.50;99.90
20125;DHT22;10223;50.862;4.360;2023-09-19T08:36:25;17.90;99.90
20125;DHT22;10223;50.862;4.360;2023-09-19T08:38:52;18.10;99.90
20125;DHT22;10223;50.862;4.360;2023-09-19T08:41:18;18.00;99.90
20125;DHT22;10223;50.862;4.360;2023-09-19T08:43:45;18.20;99.90
20125;DHT22;10223;50.862;4.360;2023-09-19T08:46:15;18.20;99.90
20125;DHT22;10223;50.862;4.360;2023-09-19T08:48:46;18.00;99.90
20125;DHT22;10223;50.862;4.360;2023-09-19T08:51:18;18.10;99.90
20125;DHT22;10223;50.862;4.360;2023-09-19T08:54:01;18.10;99.90
20125;DHT22;10223;50.862;4.360;2023-09-19T08:56:31;18.20;99.90
20125;DHT22;10223;50.862;4.360;2023-09-19T08:59:01;18.40;99.90
20125;DHT22;10223;50.862;4.360;2023-09-19T09:01:29;18.40;99.90
20125;DHT22;10223;50.862;4.360;2023-09-19T09:03:58;18.40;99.90
20125;DHT22;10223;50.862;4.360;2023-09-19T09:06:26;18.50;99.90
20125;DHT22;10223;50.862;4.360;2023-09-19T09:08:55;18.10;99.90
20125;DHT22;10223;50.862;4.360;2023-09-19T09:11:22;18.20;99.90
20125;DHT22;10223;50.862;4.360;2023-09-19T09:13:50;18.20;99.90
20125;DHT22;10223;50.862;4.360;2023-09-19T09:16:17;18.40;99.90
20125;DHT22;10223;50.862;4.360;2023-09-19T09:18:44;18.30;99.90
20125;DHT22;10223;50.862;4.360;2023-09-19T09:21:11;18.40;99.90
20125;DHT22;10223;50.862;4.360;2023-09-19T09:23:41;18.30;99.90
20125;DHT22;10223;50.862;4.360;2023-09-19T09:26:09;18.10;99.90
20125;DHT22;10223;50.862;4.360;2023-09-19T09:28:44;18.10;99.90
20125;DHT22;10223;50.862;4.360;2023-09-19T09:31:22;18.20;99.90
20125;DHT22;10223;50.862;4.360;2023-09-19T09:33:53;18.40;99.90
20125;DHT22;10223;50.862;4.360;2023-09-19T09:36:34;18.40;99.90
20125;DHT22;10223;50.862;4.360;2023-09-19T09:39:02;18.40;99.90
20125;DHT22;10223;50.862;4.360;2023-09-19T09:41:42;18.60;99.90
20125;DHT22;10223;50.862;4.360;2023-09-19T09:44:13;18.50;99.90
20125;DHT22;10223;50.862;4.360;2023-09-19T09:46:43;18.50;99.90
20125;DHT22;10223;50.862;4.360;2023-09-19T09:49:48;18.30;99.90
20125;DHT22;10223;50.862;4.360;2023-09-19T09:52:20;18.50;99.90
20125;DHT22;10223;50.862;4.360;2023-09-19T09:54:58;18.10;99.90
20125;DHT22;10223;50.862;4.360;2023-09-19T09:57:27;18.20;99.90
20125;DHT22;10223;50.862;4.360;2023-09-19T09:59:57;18.20;99.90
20125;DHT22;10223;50.862;4.360;2023-09-19T10:02:26;18.00;99.90
20125;DHT22;10223;50.862;4.360;2023-09-19T10:04:55;18.20;99.90
20125;DHT22;10223;50.862;4.360;2023-09-19T10:07:40;18.20;99.90
20125;DHT22;10223;50.862;4.360;2023-09-19T10:10:13;18.30;99.90
20125;DHT22;10223;50.862;4.360;2023-09-19T10:12:47;18.40;99.90
20125;DHT22;10223;50.862;4.360;2023-09-19T10:15:16;18.40;99.90
20125;DHT22;10223;50.862;4.360;2023-09-19T10:17:47;18.50;99.90
20125;DHT22;10223;50.862;4.360;2023-09-19T10:20:15;18.90;99.90
20125;DHT22;10223;50.862;4.360;2023-09-19T10:23:03;19.10;99.90
20125;DHT22;10223;50.862;4.360;2023-09-19T10:25:36;19.40;99.90
20125;DHT22;10223;50.862;4.360;2023-09-19T10:28:06;19.70;99.90
20125;DHT22;10223;50.862;4.360;2023-09-19T10:30:37;19.70;99.90
20125;DHT22;10223;50.862;4.360;2023-09-19T10:33:11;19.70;99.90
20125;DHT22;10223;50.862;4.360;2023-09-19T10:35:39;19.80;99.90
20125;DHT22;10223;50.862;4.360;2023-09-19T10:38:07;19.70;99.90
20125;DHT22;10223;50.862;4.360;2023-09-19T10:40:37;19.60;99.90
20125;DHT22;10223;50.862;4.360;2023-09-19T10:43:12;19.50;99.90
20125;DHT22;10223;50.862;4.360;2023-09-19T10:45:40;19.50;99.90
20125;DHT22;10223;50.862;4.360;2023-09-19T10:48:10;19.40;99.90
20125;DHT22;10223;50.862;4.360;2023-09-19T10:50:45;19.60;99.90
20125;DHT22;10223;50.862;4.360;2023-09-19T10:53:13;19.50;99.90
20125;DHT22;10223;50.862;4.360;2023-09-19T10:55:47;19.70;99.90
20125;DHT22;10223;50.862;4.360;2023-09-19T10:58:25;19.70;99.90
20125;DHT22;10223;50.862;4.360;2023-09-19T11:00:55;20.00;99.90
20125;DHT22;10223;50.862;4.360;2023-09-19T11:03:26;20.60;99.90
20125;DHT22;10223;50.862;4.360;2023-09-19T11:06:08;20.80;99.90
20125;DHT22;10223;50.862;4.360;2023-09-19T11:08:55;20.70;99.90
20125;DHT22;10223;50.862;4.360;2023-09-19T11:11:48;20.80;99.90
20125;DHT22;10223;50.862;4.360;2023-09-19T11:14:38;20.90;99.90
20125;DHT22;10223;50.862;4.360;2023-09-19T11:17:33;20.70;99.90
20125;DHT22;10223;50.862;4.360;2023-09-19T11:20:30;20.40;99.90
20125;DHT22;10223;50.862;4.360;2023-09-19T11:23:22;20.70;99.90
20125;DHT22;10223;50.862;4.360;2023-09-19T11:25:50;21.20;99.90
20125;DHT22;10223;50.862;4.360;2023-09-19T11:34:42;20.50;99.90
20125;DHT22;10223;50.862;4.360;2023-09-19T11:40:36;20.00;99.90
20125;DHT22;10223;50.862;4.360;2023-09-19T11:43:32;19.90;99.90
20125;DHT22;10223;50.862;4.360;2023-09-19T11:46:09;19.90;99.90
20125;DHT22;10223;50.862;4.360;2023-09-19T11:48:38;19.80;99.90
20125;DHT22;10223;50.862;4.360;2023-09-19T11:51:16;19.80;99.90
20125;DHT22;10223;50.862;4.360;2023-09-19T11:53:48;19.70;99.90
20125;DHT22;10223;50.862;4.360;2023-09-19T11:56:16;19.80;99.90
20125;DHT22;10223;50.862;4.360;2023-09-19T11:58:44;19.90;99.90
20125;DHT22;10223;50.862;4.360;2023-09-19T12:01:13;20.00;99.90
20125;DHT22;10223;50.862;4.360;2023-09-19T12:03:46;20.20;99.90
20125;DHT22;10223;50.862;4.360;2023-09-19T12:06:17;20.30;99.90
20125;DHT22;10223;50.862;4.360;2023-09-19T12:08:44;20.30;99.90
20125;DHT22;10223;50.862;4.360;2023-09-19T12:11:13;20.00;99.90
20125;DHT22;10223;50.862;4.360;2023-09-19T12:13:44;19.80;99.90
20125;DHT22;10223;50.862;4.360;2023-09-19T12:16:13;19.60;99.90
20125;DHT22;10223;50.862;4.360;2023-09-19T12:18:41;19.80;99.90
20125;DHT22;10223;50.862;4.360;2023-09-19T12:21:26;19.90;99.90
20125;DHT22;10223;50.862;4.360;2023-09-19T12:24:05;20.00;99.90
20125;DHT22;10223;50.862;4.360;2023-09-19T12:26:39;19.90;99.90
20125;DHT22;10223;50.862;4.360;2023-09-19T12:29:14;20.00;99.90
20125;DHT22;10223;50.862;4.360;2023-09-19T12:31:50;19.90;99.90
20125;DHT22;10223;50.862;4.360;2023-09-19T12:34:20;19.90;99.90
20125;DHT22;10223;50.862;4.360;2023-09-19T12:36:48;19.80;99.90
20125;DHT22;10223;50.862;4.360;2023-09-19T12:39:24;19.80;99.90
20125;DHT22;10223;50.862;4.360;2023-09-19T12:41:52;19.70;99.90
20125;DHT22;10223;50.862;4.360;2023-09-19T12:44:20;19.90;99.90
20125;DHT22;10223;50.862;4.360;2023-09-19T12:46:50;19.70;99.90
20125;DHT22;10223;50.862;4.360;2023-09-19T12:49:20;19.80;99.90
20125;DHT22;10223;50.862;4.360;2023-09-19T12:51:49;19.90;99.90
20125;DHT22;10223;50.862;4.360;2023-09-19T12:54:22;19.80;99.90
20125;DHT22;10223;50.862;4.360;2023-09-19T12:56:50;19.80;99.90
20125;DHT22;10223;50.862;4.360;2023-09-19T12:59:29;19.70;99.90
20125;DHT22;10223;50.862;4.360;2023-09-19T13:02:04;19.50;99.90
20125;DHT22;10223;50.862;4.360;2023-09-19T13:04:33;19.70;99.90
20125;DHT22;10223;50.862;4.360;2023-09-19T13:07:07;19.70;99.90
20125;DHT22;10223;50.862;4.360;2023-09-19T13:09:34;19.90;99.90
20125;DHT22;10223;50.862;4.360;2023-09-19T13:12:01;19.80;99.90
20125;DHT22;10223;50.862;4.360;2023-09-19T13:14:29;19.80;99.90
20125;DHT22;10223;50.862;4.360;2023-09-19T13:17:00;20.00;99.90
20125;DHT22;10223;50.862;4.360;2023-09-19T13:19:37;20.00;99.90
20125;DHT22;10223;50.862;4.360;2023-09-19T13:22:36;20.10;99.90
20125;DHT22;10223;50.862;4.360;2023-09-19T13:25:04;20.00;99.90
20125;DHT22;10223;50.862;4.360;2023-09-19T13:27:32;19.90;99.90
20125;DHT22;10223;50.862;4.360;2023-09-19T13:29:59;19.90;99.90
20125;DHT22;10223;50.862;4.360;2023-09-19T13:32:25;19.90;99.90
20125;DHT22;10223;50.862;4.360;2023-09-19T13:34:52;19.90;99.90
20125;DHT22;10223;50.862;4.360;2023-09-19T13:37:21;20.00;99.90
20125;DHT22;10223;50.862;4.360;2023-09-19T13:39:48;19.90;99.90
20125;DHT22;10223;50.862;4.360;2023-09-19T13:42:14;19.90;99.90
20125;DHT22;10223;50.862;4.360;2023-09-19T13:44:42;20.00;99.90
20125;DHT22;10223;50.862;4.360;2023-09-19T13:47:09;19.90;99.90
20125;DHT22;10223;50.862;4.360;2023-09-19T13:49:38;19.90;99.90
20125;DHT22;10223;50.862;4.360;2023-09-19T13:52:05;20.00;99.90
20125;DHT22;10223;50.862;4.360;2023-09-19T13:54:34;19.80;99.90
20125;DHT22;10223;50.862;4.360;2023-09-19T13:57:01;19.90;99.90
20125;DHT22;10223;50.862;4.360;2023-09-19T13:59:28;19.90;99.90
20125;DHT22;10223;50.862;4.360;2023-09-19T14:01:56;19.90;99.90
20125;DHT22;10223;50.862;4.360;2023-09-19T14:04:26;20.00;99.90
20125;DHT22;10223;50.862;4.360;2023-09-19T14:06:54;19.90;99.90
20125;DHT22;10223;50.862;4.360;2023-09-19T14:09:22;19.90;99.90
20125;DHT22;10223;50.862;4.360;2023-09-19T14:11:51;19.90;99.90
20125;DHT22;10223;50.862;4.360;2023-09-19T14:14:19;19.90;99.90
20125;DHT22;10223;50.862;4.360;2023-09-19T14:16:46;19.80;99.90
20125;DHT22;10223;50.862;4.360;2023-09-19T14:19:13;19.80;99.90
20125;DHT22;10223;50.862;4.360;2023-09-19T14:21:42;20.00;99.90
20125;DHT22;10223;50.862;4.360;2023-09-19T14:24:09;20.20;99.90
20125;DHT22;10223;50.862;4.360;2023-09-19T14:26:37;20.40;99.90
20125;DHT22;10223;50.862;4.360;2023-09-19T14:29:05;20.30;99.90
20125;DHT22;10223;50.862;4.360;2023-09-19T14:31:37;20.30;99.90
20125;DHT22;10223;50.862;4.360;2023-09-19T14:34:05;20.30;99.90
20125;DHT22;10223;50.862;4.360;2023-09-19T14:36:33;20.20;99.90
20125;DHT22;10223;50.862;4.360;2023-09-19T14:39:00;20.50;99.90
20125;DHT22;10223;50.862;4.360;2023-09-19T14:41:27;21.20;99.90
20125;DHT22;10223;50.862;4.360;2023-09-19T14:43:57;21.40;99.90
20125;DHT22;10223;50.862;4.360;2023-09-19T14:46:25;21.20;99.90
20125;DHT22;10223;50.862;4.360;2023-09-19T14:48:52;20.70;99.90
20125;DHT22;10223;50.862;4.360;2023-09-19T14:51:19;20.60;99.90
20125;DHT22;10223;50.862;4.360;2023-09-19T14:53:46;20.30;99.90
20125;DHT22;10223;50.862;4.360;2023-09-19T14:56:13;19.90;99.90
20125;DHT22;10223;50.862;4.360;2023-09-19T14:58:43;19.90;99.90
20125;DHT22;10223;50.862;4.360;2023-09-19T15:01:11;19.90;99.90
20125;DHT22;10223;50.862;4.360;2023-09-19T15:03:41;19.80;99.90
20125;DHT22;10223;50.862;4.360;2023-09-19T15:06:09;19.90;99.90
20125;DHT22;10223;50.862;4.360;2023-09-19T15:08:40;19.80;99.90
20125;DHT22;10223;50.862;4.360;2023-09-19T15:11:11;19.70;99.90
20125;DHT22;10223;50.862;4.360;2023-09-19T15:13:38;19.80;99.90
20125;DHT22;10223;50.862;4.360;2023-09-19T15:16:07;19.60;99.90
20125;DHT22;10223;50.862;4.360;2023-09-19T15:18:35;19.70;99.90
20125;DHT22;10223;50.862;4.360;2023-09-19T15:21:05;19.80;99.90
20125;DHT22;10223;50.862;4.360;2023-09-19T15:23:33;19.70;99.90
20125;DHT22;10223;50.862;4.360;2023-09-19T15:26:00;19.60;99.90
20125;DHT22;10223;50.862;4.360;2023-09-19T15:28:28;19.50;99.90
20125;DHT22;10223;50.862;4.360;2023-09-19T15:30:59;19.50;99.90
20125;DHT22;10223;50.862;4.360;2023-09-19T15:33:26;19.50;99.90
20125;DHT22;10223;50.862;4.360;2023-09-19T15:36:01;19.50;99.90
20125;DHT22;10223;50.862;4.360;2023-09-19T15:38:56;19.60;99.90
20125;DHT22;10223;50.862;4.360;2023-09-19T15:41:24;19.40;99.90
20125;DHT22;10223;50.862;4.360;2023-09-19T15:43:52;19.30;99.90
20125;DHT22;10223;50.862;4.360;2023-09-19T15:46:19;19.40;99.90
20125;DHT22;10223;50.862;4.360;2023-09-19T15:48:46;19.40;99.90
20125;DHT22;10223;50.862;4.360;2023-09-19T15:51:13;19.50;99.90
20125;DHT22;10223;50.862;4.360;2023-09-19T15:53:44;19.40;99.90
20125;DHT22;10223;50.862;4.360;2023-09-19T15:56:11;19.50;99.90